createdAt,value
2018-07-20T00:00:03.031Z,19.47
2018-07-20T00:02:33.167Z,18.77
2018-07-20T00:05:03.463Z,22.27
2018-07-20T00:07:33.610Z,21.27
2018-07-20T00:10:03.924Z,24.57
2018-07-20T00:12:34.572Z,22.13
2018-07-20T00:15:05.330Z,18.87
2018-07-20T00:17:35.638Z,18.33
2018-07-20T00:20:06.625Z,19.83
2018-07-20T00:22:36.781Z,16.27
2018-07-20T00:25:07.119Z,15.87
2018-07-20T00:27:37.438Z,15.83
2018-07-20T00:30:08.203Z,15.67
2018-07-20T00:32:38.919Z,19.37
2018-07-20T00:35:10.021Z,15.87
2018-07-20T00:37:40.349Z,16.90
2018-07-20T00:40:10.553Z,18.20
2018-07-20T00:42:40.899Z,18.80
2018-07-20T00:45:11.764Z,16.93
2018-07-20T00:47:42.490Z,18.93
2018-07-20T00:50:12.978Z,15.03
2018-07-20T00:52:43.236Z,14.50
2018-07-20T00:55:13.668Z,16.47
2018-07-20T00:57:44.623Z,18.30
2018-07-20T01:00:14.977Z,21.10
2018-07-20T01:02:45.892Z,17.37
2018-07-20T01:05:16.483Z,15.73
2018-07-20T01:07:47.433Z,16.23
2018-07-20T01:10:17.827Z,21.20
2018-07-20T01:12:48.221Z,16.77
2018-07-20T01:15:18.494Z,20.37
2018-07-20T01:17:49.541Z,16.83
2018-07-20T01:20:19.921Z,18.40
2018-07-20T01:22:50.300Z,17.47
2018-07-20T01:25:21.118Z,15.60
2018-07-20T01:27:51.709Z,19.90
2018-07-20T01:30:22.062Z,17.10
2018-07-20T01:32:52.305Z,16.70
2018-07-20T01:35:23.188Z,19.80
2018-07-20T01:37:54.131Z,13.40
2018-07-20T01:40:24.402Z,16.70
2018-07-20T01:42:55.547Z,18.87
2018-07-20T01:45:26.166Z,17.07
2018-07-20T01:47:56.494Z,17.53
2018-07-20T01:50:27.022Z,17.90
2018-07-20T01:52:57.320Z,15.47
2018-07-20T01:55:27.785Z,20.43
2018-07-20T01:57:58.080Z,19.90
2018-07-20T02:00:28.319Z,18.80
2018-07-20T02:02:58.872Z,17.90
2018-07-20T02:05:29.137Z,17.20
2018-07-20T02:07:59.721Z,15.23
2018-07-20T02:10:30.024Z,17.37
2018-07-20T02:13:00.330Z,17.57
2018-07-20T02:15:30.551Z,24.13
2018-07-20T02:18:00.907Z,15.73
2018-07-20T02:20:31.850Z,26.20
2018-07-20T02:23:02.008Z,17.23
2018-07-20T02:25:38.170Z,17.83
2018-07-20T02:28:10.958Z,20.67
2018-07-20T02:30:43.757Z,17.53
2018-07-20T02:33:17.369Z,18.00
2018-07-20T02:35:48.342Z,19.33
2018-07-20T02:38:20.099Z,17.43
2018-07-20T02:40:51.080Z,18.43
2018-07-20T02:43:21.753Z,16.00
2018-07-20T02:45:52.119Z,22.60
2018-07-20T02:48:22.799Z,17.77
2018-07-20T02:50:53.081Z,17.30
2018-07-20T02:53:24.741Z,20.60
2018-07-20T02:55:55.682Z,20.03
2018-07-20T02:58:26.304Z,19.30
2018-07-20T03:00:56.617Z,19.17
2018-07-20T03:03:27.773Z,17.20
2018-07-20T03:05:58.067Z,17.87
2018-07-20T03:08:29.168Z,17.23
2018-07-20T03:10:59.434Z,14.77
2018-07-20T03:13:29.924Z,14.10
2018-07-20T03:16:00.185Z,20.60
2018-07-20T03:18:30.388Z,21.67
2018-07-20T03:21:00.920Z,14.57
2018-07-20T03:23:31.476Z,18.80
2018-07-20T03:26:01.675Z,18.43
2018-07-20T03:28:32.029Z,18.50
2018-07-20T03:31:02.218Z,18.27
2018-07-20T03:33:32.485Z,18.27
2018-07-20T03:36:03.580Z,16.20
2018-07-20T03:38:33.839Z,18.03
2018-07-20T03:41:04.178Z,16.10
2018-07-20T03:43:34.497Z,16.90
2018-07-20T03:46:04.841Z,17.67
2018-07-20T03:48:35.164Z,18.80
2018-07-20T03:51:06.048Z,19.40
2018-07-20T03:53:36.942Z,15.67
2018-07-20T03:56:07.237Z,13.30
2018-07-20T03:58:37.502Z,14.13
2018-07-20T04:01:07.761Z,16.07
2018-07-20T04:03:38.785Z,13.40
2018-07-20T04:06:09.324Z,13.60
2018-07-20T04:08:39.857Z,16.77
2018-07-20T04:11:10.213Z,17.30
2018-07-20T04:13:40.818Z,12.73
2018-07-20T04:16:11.089Z,14.30
2018-07-20T04:18:42.481Z,9.40
2018-07-20T04:21:12.870Z,9.47
2018-07-20T04:23:43.164Z,9.90
2018-07-20T04:26:13.576Z,8.60
2018-07-20T04:28:45.473Z,8.20
2018-07-20T04:31:15.816Z,8.97
2018-07-20T04:33:46.077Z,10.23
2018-07-20T04:36:17.267Z,9.30
2018-07-20T04:38:47.757Z,7.53
2018-07-20T04:41:18.090Z,8.00
2018-07-20T04:43:48.361Z,6.80
2018-07-20T04:46:18.987Z,7.07
2018-07-20T04:48:49.635Z,7.17
2018-07-20T04:51:20.692Z,6.33
2018-07-20T04:53:51.085Z,7.97
2018-07-20T04:56:21.278Z,8.70
2018-07-20T04:58:51.560Z,7.80
2018-07-20T05:01:22.150Z,9.40
2018-07-20T05:03:52.570Z,8.67
2018-07-20T05:06:23.056Z,6.93
2018-07-20T05:08:53.707Z,6.97
2018-07-20T05:11:24.424Z,7.23
2018-07-20T05:13:55.282Z,7.73
2018-07-20T05:16:25.521Z,7.57
2018-07-20T05:18:55.786Z,6.13
2018-07-20T05:21:27.096Z,7.30
2018-07-20T05:23:58.131Z,5.20
2018-07-20T05:26:28.490Z,5.43
2018-07-20T05:28:58.848Z,7.23
2018-07-20T05:31:30.040Z,9.33
2018-07-20T05:34:00.289Z,7.83
2018-07-20T05:36:31.159Z,6.12
2018-07-20T05:39:02.075Z,7.42
2018-07-20T05:41:32.637Z,6.30
2018-07-20T05:44:03.547Z,4.72
2018-07-20T05:46:34.525Z,5.40
2018-07-20T05:49:05.406Z,6.40
2018-07-20T05:51:36.334Z,4.78
2018-07-20T05:54:07.291Z,8.43
2018-07-20T05:56:38.235Z,5.30
2018-07-20T05:59:09.278Z,4.75
2018-07-20T06:01:40.222Z,8.10
2018-07-20T06:04:11.037Z,6.53
2018-07-20T06:06:42.241Z,5.90
2018-07-20T06:09:13.575Z,6.28
2018-07-20T06:11:44.539Z,8.63
2018-07-20T06:14:16.457Z,5.72
2018-07-20T06:16:47.567Z,5.00
2018-07-20T06:19:18.506Z,6.03
2018-07-20T06:21:50.241Z,3.55
2018-07-20T06:24:22.318Z,5.55
2018-07-20T06:26:53.190Z,3.58
2018-07-20T06:29:23.809Z,4.30
2018-07-20T06:31:54.685Z,5.85
2018-07-20T06:34:25.477Z,4.22
2018-07-20T06:36:56.279Z,4.37
2018-07-20T06:39:26.610Z,5.23
2018-07-20T06:41:57.407Z,6.72
2018-07-20T06:44:28.214Z,5.62
2018-07-20T06:46:59.434Z,4.13
2018-07-20T06:49:30.537Z,3.93
2018-07-20T06:52:01.731Z,3.87
2018-07-20T06:54:32.904Z,3.17
2018-07-20T06:57:03.541Z,3.50
2018-07-20T06:59:34.081Z,5.27
2018-07-20T07:02:04.709Z,4.07
2018-07-20T07:04:35.341Z,6.60
2018-07-20T07:07:06.189Z,5.57
2018-07-20T07:09:36.905Z,3.10
2018-07-20T07:12:07.629Z,2.97
2018-07-20T07:14:37.958Z,3.97
2018-07-20T07:17:08.630Z,3.23
2018-07-20T07:19:39.258Z,3.93
2018-07-20T07:22:10.009Z,3.20
2018-07-20T07:24:41.340Z,4.07
2018-07-20T07:27:11.777Z,4.80
2018-07-20T07:29:42.129Z,3.60
2018-07-20T07:32:12.611Z,3.60
2018-07-20T07:34:42.990Z,3.73
2018-07-20T07:37:13.421Z,3.50
2018-07-20T07:39:44.565Z,3.93
2018-07-20T07:42:15.060Z,5.40
2018-07-20T07:44:45.540Z,4.00
2018-07-20T07:47:15.988Z,3.80
2018-07-20T07:49:46.393Z,3.70
2018-07-20T07:52:16.867Z,3.70
2018-07-20T07:54:47.289Z,2.90
2018-07-20T07:57:17.934Z,3.50
2018-07-20T07:59:48.387Z,4.30
2018-07-20T08:02:18.814Z,4.20
2018-07-20T08:04:48.933Z,6.93
2018-07-20T08:07:19.485Z,5.90
2018-07-20T08:09:50.150Z,3.63
2018-07-20T08:12:20.794Z,6.07
2018-07-20T08:14:50.849Z,6.33
2018-07-20T08:17:21.253Z,4.53
2018-07-20T08:19:51.629Z,4.07
2018-07-20T08:22:22.023Z,6.43
2018-07-20T08:24:52.417Z,4.43
2018-07-20T08:27:22.725Z,5.03
2018-07-20T08:29:52.900Z,4.13
2018-07-20T08:32:23.288Z,4.73
2018-07-20T08:34:53.709Z,4.10
2018-07-20T08:37:24.169Z,4.20
2018-07-20T08:39:54.610Z,6.40
2018-07-20T08:42:25.181Z,5.93
2018-07-20T08:44:56.105Z,5.70
2018-07-20T08:47:26.946Z,3.80
2018-07-20T08:49:57.580Z,4.00
2018-07-20T08:52:28.140Z,4.37
2018-07-20T08:54:58.417Z,4.43
2018-07-20T08:57:28.877Z,5.07
2018-07-20T08:59:59.265Z,6.00
2018-07-20T09:02:29.966Z,3.83
2018-07-20T09:05:00.602Z,5.83
2018-07-20T09:07:31.417Z,3.67
2018-07-20T09:10:01.713Z,4.50
2018-07-20T09:12:32.569Z,6.00
2018-07-20T09:15:03.484Z,3.80
2018-07-20T09:17:33.923Z,5.20
2018-07-20T09:20:04.989Z,6.33
2018-07-20T09:22:35.735Z,5.28
2018-07-20T09:25:06.363Z,5.17
2018-07-20T09:27:37.181Z,4.42
2018-07-20T09:30:08.853Z,6.92
2018-07-20T09:32:39.421Z,7.12
2018-07-20T09:35:10.158Z,4.20
2018-07-20T09:37:40.997Z,8.73
2018-07-20T09:40:11.906Z,10.15
2018-07-20T09:42:42.988Z,5.58
2018-07-20T09:45:13.687Z,6.15
2018-07-20T09:47:44.454Z,4.95
2018-07-20T09:50:15.021Z,3.50
2018-07-20T09:52:45.824Z,4.47
2018-07-20T09:55:17.265Z,3.45
2018-07-20T09:57:47.813Z,4.17
2018-07-20T10:00:23.880Z,4.45
2018-07-20T10:02:54.696Z,5.72
2018-07-20T10:05:25.245Z,8.38
2018-07-20T10:07:55.836Z,5.40
2018-07-20T10:10:26.875Z,4.45
2018-07-20T10:12:57.360Z,5.17
2018-07-20T10:15:28.262Z,5.72
2018-07-20T10:17:59.063Z,5.58
2018-07-20T10:20:30.075Z,3.60
2018-07-20T10:23:01.943Z,5.50
2018-07-20T10:25:33.315Z,7.12
2018-07-20T10:28:04.693Z,3.77
2018-07-20T10:30:35.631Z,3.83
2018-07-20T10:33:07.623Z,3.45
2018-07-20T10:35:38.745Z,4.67
2018-07-20T10:38:10.350Z,5.25
2018-07-20T10:40:41.054Z,4.80
2018-07-20T10:43:11.850Z,6.80
2018-07-20T10:45:42.851Z,4.20
2018-07-20T10:48:13.574Z,4.78
2018-07-20T10:50:44.516Z,5.97
2018-07-20T10:53:15.181Z,4.28
2018-07-20T10:55:46.105Z,3.47
2018-07-20T10:58:16.611Z,3.30
2018-07-20T11:00:47.542Z,3.62
2018-07-20T11:03:19.156Z,4.67
2018-07-20T11:05:49.997Z,4.60
2018-07-20T11:08:20.499Z,3.90
2018-07-20T11:10:51.542Z,3.98
2018-07-20T11:13:22.313Z,4.70
2018-07-20T11:15:53.345Z,4.03
2018-07-20T11:18:24.267Z,2.95
2018-07-20T11:20:55.138Z,5.37
2018-07-20T11:23:25.962Z,4.75
2018-07-20T11:25:56.865Z,4.33
2018-07-20T11:28:27.773Z,4.95
2018-07-20T11:30:58.600Z,5.10
2018-07-20T11:33:29.955Z,6.17
2018-07-20T11:36:00.897Z,6.00
2018-07-20T11:38:31.807Z,4.67
2018-07-20T11:41:02.587Z,4.30
2018-07-20T11:43:33.372Z,4.53
2018-07-20T11:46:04.428Z,3.37
2018-07-20T11:48:35.401Z,4.78
2018-07-20T11:51:06.294Z,4.62
2018-07-20T11:53:37.081Z,4.60
2018-07-20T11:56:07.635Z,5.12
2018-07-20T11:58:38.339Z,6.22
2018-07-20T12:01:08.960Z,3.92
2018-07-20T12:03:39.729Z,4.20
2018-07-20T12:06:10.640Z,4.08
2018-07-20T12:08:41.206Z,3.70
2018-07-20T12:11:12.175Z,4.37
2018-07-20T12:13:42.677Z,4.08
2018-07-20T12:16:13.241Z,4.75
2018-07-20T12:18:43.745Z,5.30
2018-07-20T12:21:14.673Z,3.80
2018-07-20T12:23:45.314Z,4.25
2018-07-20T12:26:16.270Z,6.30
2018-07-20T12:28:47.074Z,6.17
2018-07-20T12:31:17.950Z,4.37
2018-07-20T12:33:48.685Z,6.12
2018-07-20T12:36:19.677Z,4.53
2018-07-20T12:38:50.842Z,4.12
2018-07-20T12:41:21.708Z,4.08
2018-07-20T12:43:52.625Z,6.08
2018-07-20T12:46:23.213Z,6.40
2018-07-20T12:48:53.959Z,3.77
2018-07-20T12:51:25.345Z,4.03
2018-07-20T12:53:55.879Z,4.90
2018-07-20T12:56:27.024Z,4.55
2018-07-20T12:58:57.679Z,5.10
2018-07-20T13:01:29.045Z,4.33
2018-07-20T13:03:59.542Z,4.30
2018-07-20T13:06:30.476Z,3.92
2018-07-20T13:09:00.970Z,6.00
2018-07-20T13:11:31.986Z,3.77
2018-07-20T13:14:03.443Z,4.47
2018-07-20T13:16:34.623Z,5.67
2018-07-20T13:19:05.602Z,4.22
2018-07-20T13:21:36.340Z,5.47
2018-07-20T13:24:07.183Z,5.55
2018-07-20T13:26:39.587Z,5.55
2018-07-20T13:29:11.415Z,4.10
2018-07-20T13:31:42.089Z,5.40
2018-07-20T13:34:12.722Z,4.17
2018-07-20T13:36:43.612Z,4.22
2018-07-20T13:39:14.149Z,5.50
2018-07-20T13:41:45.134Z,4.85
2018-07-20T13:44:15.765Z,5.65
2018-07-20T13:46:46.994Z,8.33
2018-07-20T13:49:17.659Z,6.30
2018-07-20T13:51:48.217Z,4.37
2018-07-20T13:54:18.889Z,7.17
2018-07-20T13:56:50.477Z,5.40
2018-07-20T13:59:21.597Z,4.17
2018-07-20T14:01:52.098Z,5.47
2018-07-20T14:04:22.661Z,6.15
2018-07-20T14:06:53.253Z,4.85
2018-07-20T14:09:23.998Z,5.17
2018-07-20T14:11:54.662Z,6.10
2018-07-20T14:14:25.224Z,5.95
2018-07-20T14:16:55.738Z,4.92
2018-07-20T14:19:26.563Z,5.65
2018-07-20T14:21:57.161Z,5.35
2018-07-20T14:24:27.762Z,7.80
2018-07-20T14:26:58.342Z,4.50
2018-07-20T14:29:29.344Z,7.37
2018-07-20T14:31:59.986Z,9.90
2018-07-20T14:34:31.593Z,5.72
2018-07-20T14:37:02.193Z,6.17
2018-07-20T14:39:32.627Z,6.87
2018-07-20T14:42:03.087Z,5.58
2018-07-20T14:44:33.736Z,6.35
2018-07-20T14:47:04.376Z,4.92
2018-07-20T14:49:34.925Z,6.67
2018-07-20T14:52:05.637Z,5.62
2018-07-20T14:54:36.173Z,5.40
2018-07-20T14:57:06.800Z,5.97
2018-07-20T14:59:37.464Z,6.47
2018-07-20T15:02:08.204Z,6.17
2018-07-20T15:04:38.917Z,7.50
2018-07-20T15:07:09.548Z,6.28
2018-07-20T15:09:40.112Z,5.60
2018-07-20T15:12:11.031Z,6.20
2018-07-20T15:14:41.644Z,10.70
2018-07-20T15:17:12.490Z,6.65
2018-07-20T15:19:43.129Z,6.37
2018-07-20T15:22:13.712Z,7.55
2018-07-20T15:24:44.945Z,6.60
2018-07-20T15:27:15.585Z,10.50
2018-07-20T15:29:46.288Z,6.28
2018-07-20T15:32:16.832Z,7.60
2018-07-20T15:34:47.489Z,5.53
2018-07-20T15:37:18.634Z,5.42
2018-07-20T15:39:49.268Z,5.37
2018-07-20T15:42:19.905Z,8.50
2018-07-20T15:51:01.566Z,5.22
2018-07-20T15:53:36.251Z,7.40
2018-07-20T15:56:03.077Z,6.00
2018-07-20T16:23:43.208Z,5.40
2018-07-20T16:26:17.579Z,5.90
2018-07-20T16:32:03.431Z,7.62
2018-07-20T16:34:47.714Z,10.93
2018-07-20T16:37:20.215Z,7.10
2018-07-20T16:43:04.743Z,5.95
2018-07-20T16:45:40.326Z,6.00
2018-07-20T16:48:34.468Z,14.47
2018-07-20T16:51:17.503Z,8.58
2018-07-20T16:53:51.103Z,7.35
2018-07-20T16:56:24.560Z,6.42
2018-07-20T16:58:57.440Z,6.30
2018-07-20T17:01:40.939Z,7.37
2018-07-20T17:07:12.523Z,6.60
2018-07-20T17:09:56.203Z,7.12
2018-07-20T17:12:42.242Z,9.35
2018-07-20T17:15:15.526Z,8.33
2018-07-20T17:18:01.539Z,8.48
2018-07-20T17:20:34.087Z,7.30
2018-07-20T17:23:08.048Z,9.40
2018-07-20T17:25:48.867Z,7.70
2018-07-20T17:28:21.952Z,6.47
2018-07-20T17:31:06.036Z,6.87
2018-07-20T17:33:38.190Z,5.90
2018-07-20T17:36:33.148Z,7.72
2018-07-20T17:39:20.610Z,7.50
2018-07-20T17:41:53.626Z,8.15
2018-07-20T17:44:38.164Z,8.48
2018-07-20T17:47:29.355Z,6.70
2018-07-20T17:53:00.397Z,7.20
2018-07-20T17:55:33.156Z,6.83
2018-07-20T17:58:07.641Z,7.62
2018-07-20T18:00:39.601Z,6.92
2018-07-20T18:03:28.726Z,6.90
2018-07-20T18:06:00.792Z,6.92
2018-07-20T18:08:33.889Z,7.20
2018-07-20T18:11:06.334Z,6.75
2018-07-20T18:13:39.064Z,6.70
2018-07-20T18:16:12.102Z,6.25
2018-07-20T18:18:43.932Z,7.60
2018-07-20T18:21:16.276Z,7.12
2018-07-20T18:23:48.592Z,7.50
2018-07-20T18:26:36.874Z,8.87
2018-07-20T18:32:17.989Z,7.03
2018-07-20T18:37:50.818Z,6.30
2018-07-20T18:40:20.629Z,5.83
2018-07-20T18:42:50.463Z,6.07
2018-07-20T18:45:20.921Z,8.15
2018-07-20T18:47:57.190Z,6.28
2018-07-20T18:50:35.815Z,6.60
2018-07-20T18:53:09.447Z,6.28
2018-07-20T18:55:42.115Z,7.65
2018-07-20T18:58:20.002Z,6.58
2018-07-20T19:00:56.242Z,6.72
2018-07-20T19:06:35.776Z,10.03
2018-07-20T19:09:23.662Z,6.97
2018-07-20T19:12:06.804Z,8.58
2018-07-20T19:14:50.260Z,7.33
2018-07-20T19:17:22.711Z,9.70
2018-07-20T19:20:12.559Z,7.10
2018-07-20T19:22:48.601Z,7.45
2018-07-20T19:25:23.038Z,6.93
2018-07-20T19:27:56.826Z,7.20
2018-07-20T19:33:30.057Z,9.30
2018-07-20T19:36:04.005Z,8.60
2018-07-20T19:38:38.215Z,10.07
2018-07-20T19:41:11.316Z,12.73
2018-07-20T19:43:45.219Z,11.17
2018-07-20T19:46:17.867Z,10.50
2018-07-20T19:48:51.686Z,11.13
2018-07-20T19:51:24.399Z,11.17
2018-07-20T19:53:57.861Z,11.00
2018-07-20T19:56:31.459Z,10.43
2018-07-20T19:59:04.748Z,11.70
2018-07-20T20:01:36.932Z,12.23
2018-07-20T20:04:08.323Z,12.90
2018-07-20T20:06:58.080Z,11.10
2018-07-20T20:09:31.837Z,11.53
2018-07-20T20:12:03.442Z,12.63
2018-07-20T20:14:50.604Z,10.23
2018-07-20T20:17:32.831Z,11.50
2018-07-20T20:25:58.809Z,16.13
2018-07-20T20:28:30.929Z,16.37
2018-07-20T20:31:17.551Z,15.07
2018-07-20T20:34:02.012Z,12.97
2018-07-20T20:36:44.354Z,19.97
2018-07-20T20:39:18.157Z,24.37
2018-07-20T20:42:00.533Z,58.10
2018-07-20T20:44:33.148Z,92.57
2018-07-20T20:50:04.350Z,44.10
2018-07-20T20:52:46.704Z,31.50
2018-07-20T20:55:39.099Z,22.53
2018-07-20T20:58:28.204Z,30.93
2018-07-20T21:00:59.995Z,31.33
2018-07-20T21:03:31.711Z,30.30
2018-07-20T21:06:03.768Z,29.13
2018-07-20T21:08:43.192Z,30.80
2018-07-20T21:11:13.420Z,35.77
2018-07-20T21:16:49.774Z,29.87
2018-07-20T21:19:34.257Z,18.93
2018-07-20T21:22:06.389Z,21.23
2018-07-20T21:24:38.231Z,17.83
2018-07-20T21:27:10.465Z,19.17
2018-07-20T21:29:41.699Z,18.63
2018-07-20T21:32:13.627Z,18.37
2018-07-20T21:34:45.600Z,17.47
2018-07-20T21:37:19.205Z,17.80
2018-07-20T21:39:51.229Z,18.43
2018-07-20T21:42:30.850Z,17.63
2018-07-20T21:45:00.738Z,20.10
2018-07-20T21:47:30.635Z,18.30
2018-07-20T21:50:00.516Z,17.30
2018-07-20T21:52:30.438Z,17.93
2018-07-20T21:58:08.623Z,19.33
2018-07-20T22:00:40.655Z,16.77
2018-07-20T22:03:10.556Z,19.40
2018-07-20T22:05:40.418Z,19.83
2018-07-20T22:08:10.377Z,20.40
2018-07-20T22:10:40.230Z,18.67
2018-07-20T22:13:10.161Z,21.67
2018-07-20T22:15:40.260Z,18.90
2018-07-20T22:18:10.188Z,20.10
2018-07-20T22:20:40.274Z,19.33
2018-07-20T22:23:10.160Z,19.53
2018-07-20T22:25:40.034Z,18.60
2018-07-20T22:28:09.876Z,22.80
2018-07-20T22:30:39.718Z,21.33
2018-07-20T22:33:09.627Z,22.77
2018-07-20T22:35:41.515Z,20.23
2018-07-20T22:38:11.429Z,21.83
2018-07-20T22:40:41.322Z,24.03
2018-07-20T22:43:11.171Z,21.17
2018-07-20T22:45:41.098Z,23.20
2018-07-20T22:48:11.090Z,23.40
2018-07-20T22:50:40.985Z,22.73
2018-07-20T22:53:10.928Z,23.37
2018-07-20T22:55:40.810Z,23.87
2018-07-20T22:58:10.702Z,23.30
2018-07-20T23:00:40.685Z,23.13
2018-07-20T23:03:10.523Z,22.83
2018-07-20T23:05:40.369Z,24.33
2018-07-20T23:08:28.201Z,23.90
2018-07-20T23:10:58.115Z,25.07
2018-07-20T23:13:28.025Z,24.93
2018-07-20T23:15:57.987Z,25.17
2018-07-20T23:18:28.321Z,23.60
2018-07-20T23:24:18.598Z,24.17
2018-07-20T23:26:48.534Z,22.83
2018-07-20T23:29:18.423Z,24.97
2018-07-20T23:34:42.219Z,24.30
2018-07-20T23:37:16.536Z,27.30
2018-07-20T23:45:42.262Z,26.30
2018-07-20T23:48:12.155Z,27.60
2018-07-20T23:50:42.031Z,22.87
2018-07-20T23:53:11.902Z,24.70
2018-07-20T23:55:41.777Z,22.13
2018-07-20T23:58:11.670Z,21.80
